Time;durP1;ratioP1;P1;durP2;ratioP2;P2;SDS_P1;SDS_P2;PMS_P1;PMS_P2;Temp;Humidity;BMP_temperature;BMP_pressure;BME280_temperature;BME280_humidity;BME280_pressure;Samples;Min_cycle;Max_cycle;Signal;HPM_P1;HPM_P2
2022/07/01 00:02:13;;;;;;;23.73;3.17;;;;;;;;;;5057947;28;20453;-68
2022/07/01 00:04:40;;;;;;;7.40;1.58;;;;;;;;;;5065367;28;20511;-68
2022/07/01 00:07:10;;;;;;;9.02;1.45;;;;;;;;;;5066213;28;20052;-68
2022/07/01 00:09:37;;;;;;;16.45;3.28;;;;;;;;;;5054878;28;20064;-68
2022/07/01 00:12:05;;;;;;;7.57;1.30;;;;;;;;;;5061735;28;20121;-68
2022/07/01 00:14:32;;;;;;;8.23;1.40;;;;;;;;;;5058924;28;20456;-68
2022/07/01 00:17:00;;;;;;;8.02;1.60;;;;;;;;;;5062855;28;20052;-68
2022/07/01 00:19:28;;;;;;;6.22;1.58;;;;;;;;;;5061849;28;20056;-68
2022/07/01 00:21:55;;;;;;;5.65;1.45;;;;;;;;;;5056157;28;20045;-68
2022/07/01 00:24:23;;;;;;;4.50;1.25;;;;;;;;;;5062882;28;20052;-68
2022/07/01 00:26:50;;;;;;;4.30;1.20;;;;;;;;;;5059832;28;20045;-68
2022/07/01 00:29:17;;;;;;;5.88;1.98;;;;;;;;;;5061834;28;20159;-68
2022/07/01 00:31:45;;;;;;;4.80;1.30;;;;;;;;;;5064225;28;20051;-68
2022/07/01 00:34:12;;;;;;;6.90;1.90;;;;;;;;;;5055332;28;20107;-68
2022/07/01 00:36:40;;;;;;;4.22;1.17;;;;;;;;;;5059752;28;20056;-68
2022/07/01 00:39:08;;;;;;;5.90;1.70;;;;;;;;;;5056885;28;20052;-68
2022/07/01 00:41:35;;;;;;;6.28;1.70;;;;;;;;;;5061244;28;20055;-68
2022/07/01 00:44:02;;;;;;;6.80;1.48;;;;;;;;;;5061807;28;20121;-68
2022/07/01 00:46:29;;;;;;;4.90;1.48;;;;;;;;;;5057372;28;20476;-68
2022/07/01 00:48:57;;;;;;;6.68;1.67;;;;;;;;;;5062583;28;20123;-68
2022/07/01 00:51:25;;;;;;;2.63;1.38;;;;;;;;;;5061676;28;20122;-68
2022/07/01 00:53:54;;;;;;;6.65;1.52;;;;;;;;;;5065347;28;20122;-68
2022/07/01 00:56:21;;;;;;;5.13;1.30;;;;;;;;;;5062693;28;20402;-68
2022/07/01 00:58:49;;;;;;;4.63;1.67;;;;;;;;;;5056952;28;20052;-68
2022/07/01 01:01:16;;;;;;;6.35;2.00;;;;;;;;;;5055356;28;20507;-67
2022/07/01 01:03:43;;;;;;;10.45;2.92;;;;;;;;;;5063146;28;20152;-66
2022/07/01 01:06:10;;;;;;;14.63;4.10;;;;;;;;;;5057057;28;20059;-66
2022/07/01 01:08:38;;;;;;;9.63;2.55;;;;;;;;;;5062078;28;20057;-65
2022/07/01 01:11:07;;;;;;;6.50;2.35;;;;;;;;;;5057915;28;20106;-65
2022/07/01 01:13:34;;;;;;;5.80;1.85;;;;;;;;;;5058669;28;20049;-65
2022/07/01 01:16:02;;;;;;;5.72;2.40;;;;;;;;;;5058945;28;20048;-65
2022/07/01 01:18:29;;;;;;;11.68;3.83;;;;;;;;;;5056547;28;20064;-65
2022/07/01 01:20:57;;;;;;;9.95;3.40;;;;;;;;;;5060856;28;20044;-65
2022/07/01 01:23:25;;;;;;;5.30;2.83;;;;;;;;;;5056219;28;20040;-65
2022/07/01 01:25:52;;;;;;;8.45;3.00;;;;;;;;;;5056748;28;20097;-65
2022/07/01 01:28:19;;;;;;;4.05;2.45;;;;;;;;;;5057170;28;20057;-65
2022/07/01 01:30:46;;;;;;;9.82;3.30;;;;;;;;;;5060606;28;20509;-65
2022/07/01 01:33:13;;;;;;;7.82;3.08;;;;;;;;;;5061612;28;20056;-65
2022/07/01 01:35:41;;;;;;;9.88;4.78;;;;;;;;;;5058590;28;20044;-65
2022/07/01 01:38:09;;;;;;;7.65;3.90;;;;;;;;;;5055395;28;20060;-65
2022/07/01 01:40:36;;;;;;;6.20;3.38;;;;;;;;;;5053952;28;20102;-65
2022/07/01 01:43:04;;;;;;;11.52;4.43;;;;;;;;;;5054622;28;20094;-65
2022/07/01 01:45:31;;;;;;;8.55;4.70;;;;;;;;;;5058297;28;20052;-65
2022/07/01 01:47:58;;;;;;;9.77;3.45;;;;;;;;;;5062869;28;20048;-65
2022/07/01 01:50:25;;;;;;;8.23;3.67;;;;;;;;;;5060378;28;20044;-65
2022/07/01 01:52:52;;;;;;;9.43;3.38;;;;;;;;;;5057764;28;20049;-65
2022/07/01 01:55:21;;;;;;;10.38;2.63;;;;;;;;;;5059127;28;20098;-65
2022/07/01 01:57:48;;;;;;;6.10;2.85;;;;;;;;;;5067404;28;20064;-65
2022/07/01 02:00:15;;;;;;;6.38;3.00;;;;;;;;;;5059382;28;20076;-65
2022/07/01 02:02:43;;;;;;;10.75;3.50;;;;;;;;;;5060461;28;20036;-65
2022/07/01 02:05:11;;;;;;;7.47;3.40;;;;;;;;;;5064066;28;20534;-65
2022/07/01 02:07:38;;;;;;;7.22;3.00;;;;;;;;;;5065581;28;20729;-65
2022/07/01 02:10:06;;;;;;;4.13;2.45;;;;;;;;;;5056523;28;20052;-65
2022/07/01 02:12:34;;;;;;;3.40;2.20;;;;;;;;;;5060798;28;20037;-65
2022/07/01 02:15:02;;;;;;;4.03;2.20;;;;;;;;;;5059775;28;20057;-65
2022/07/01 02:17:29;;;;;;;6.32;2.53;;;;;;;;;;5060826;28;20060;-65
2022/07/01 02:19:56;;;;;;;5.70;2.47;;;;;;;;;;5053171;28;20052;-65
2022/07/01 02:22:23;;;;;;;5.78;2.20;;;;;;;;;;5063433;28;20060;-65
2022/07/01 02:24:51;;;;;;;4.97;2.38;;;;;;;;;;5063179;28;20045;-65
2022/07/01 02:27:18;;;;;;;11.10;1.98;;;;;;;;;;5061173;28;20052;-65
2022/07/01 02:29:47;;;;;;;5.70;1.70;;;;;;;;;;5063544;28;20142;-65
2022/07/01 02:32:14;;;;;;;3.72;1.58;;;;;;;;;;5064681;28;20146;-65
2022/07/01 02:34:41;;;;;;;6.50;1.50;;;;;;;;;;5062221;28;20044;-65
2022/07/01 02:37:09;;;;;;;5.53;1.98;;;;;;;;;;5059901;28;20063;-65
2022/07/01 02:39:36;;;;;;;7.32;1.88;;;;;;;;;;5057131;28;20048;-65
2022/07/01 02:44:49;;;;;;;3.80;1.50;;;;;;;;;;5065559;28;20273;-65
2022/07/01 02:47:16;;;;;;;5.18;1.40;;;;;;;;;;5065399;28;20093;-65
2022/07/01 02:49:44;;;;;;;5.57;1.65;;;;;;;;;;5058342;28;20045;-65
2022/07/01 02:52:11;;;;;;;3.15;1.50;;;;;;;;;;5061111;28;20482;-65
2022/07/01 02:54:38;;;;;;;4.40;1.70;;;;;;;;;;5066135;28;20106;-65
2022/07/01 02:57:05;;;;;;;5.10;1.55;;;;;;;;;;5059202;28;20052;-65
2022/07/01 02:59:32;;;;;;;4.88;1.75;;;;;;;;;;5054888;28;20107;-65
2022/07/01 03:02:01;;;;;;;8.73;1.80;;;;;;;;;;5064412;28;20060;-65
2022/07/01 03:04:28;;;;;;;4.25;2.00;;;;;;;;;;5060323;28;20126;-65
2022/07/01 03:06:56;;;;;;;8.23;2.20;;;;;;;;;;5060731;28;20158;-65
2022/07/01 03:09:24;;;;;;;3.70;1.92;;;;;;;;;;5059836;28;20506;-65
2022/07/01 03:11:51;;;;;;;5.55;2.40;;;;;;;;;;5062393;28;20406;-65
2022/07/01 03:14:18;;;;;;;4.65;2.33;;;;;;;;;;5058769;28;20057;-65
2022/07/01 03:16:47;;;;;;;4.93;2.63;;;;;;;;;;5066514;28;20483;-65
2022/07/01 03:19:15;;;;;;;7.45;3.33;;;;;;;;;;5056986;28;20792;-65
2022/07/01 03:21:43;;;;;;;10.10;2.90;;;;;;;;;;5065852;28;20110;-65
2022/07/01 03:24:10;;;;;;;9.30;2.97;;;;;;;;;;5066712;28;20103;-65
2022/07/01 03:26:37;;;;;;;7.97;3.38;;;;;;;;;;5069145;28;20041;-65
2022/07/01 03:29:04;;;;;;;8.57;4.15;;;;;;;;;;5065693;28;20473;-65
2022/07/01 03:31:31;;;;;;;7.35;4.32;;;;;;;;;;5062977;28;20052;-65
2022/07/01 03:33:58;;;;;;;6.93;4.20;;;;;;;;;;5067476;28;20053;-65
2022/07/01 03:36:27;;;;;;;10.20;4.65;;;;;;;;;;5066372;28;20056;-65
2022/07/01 03:38:54;;;;;;;11.95;4.47;;;;;;;;;;5065955;28;20106;-65
2022/07/01 03:41:21;;;;;;;10.50;5.22;;;;;;;;;;5066364;28;20048;-65
2022/07/01 03:43:49;;;;;;;9.50;4.85;;;;;;;;;;5064101;28;20071;-65
2022/07/01 03:46:16;;;;;;;7.28;4.82;;;;;;;;;;5066235;28;20048;-65
2022/07/01 03:48:43;;;;;;;10.80;5.93;;;;;;;;;;5068329;28;20056;-65
2022/07/01 03:51:10;;;;;;;11.18;5.20;;;;;;;;;;5067701;28;20067;-65
2022/07/01 03:56:24;;;;;;;14.07;5.00;;;;;;;;;;5067148;28;20623;-65
2022/07/01 03:58:51;;;;;;;11.45;5.18;;;;;;;;;;5067356;28;20044;-65
2022/07/01 04:01:18;;;;;;;9.95;5.05;;;;;;;;;;5065911;28;20067;-65
2022/07/01 04:03:45;;;;;;;10.23;4.57;;;;;;;;;;5065801;28;20060;-65
2022/07/01 04:06:12;;;;;;;10.60;4.30;;;;;;;;;;5061594;28;20052;-65
2022/07/01 04:08:41;;;;;;;13.52;4.60;;;;;;;;;;5066905;28;20053;-65
2022/07/01 04:11:09;;;;;;;8.52;3.85;;;;;;;;;;5068214;28;20052;-65
2022/07/01 04:13:36;;;;;;;10.77;4.15;;;;;;;;;;5066439;28;20048;-65
2022/07/01 04:16:04;;;;;;;11.75;3.90;;;;;;;;;;5066614;28;20052;-65
2022/07/01 04:18:31;;;;;;;13.52;3.88;;;;;;;;;;5064883;28;20055;-65
2022/07/01 04:23:45;;;;;;;11.65;3.20;;;;;;;;;;5067415;28;20617;-65
2022/07/01 04:26:12;;;;;;;7.88;2.50;;;;;;;;;;5066286;28;20056;-65
2022/07/01 04:28:39;;;;;;;9.80;2.75;;;;;;;;;;5066914;28;20503;-65
2022/07/01 04:31:06;;;;;;;12.75;2.53;;;;;;;;;;5063672;28;20045;-65
2022/07/01 04:33:33;;;;;;;6.28;1.95;;;;;;;;;;5065565;28;20517;-65
2022/07/01 04:36:01;;;;;;;7.93;2.13;;;;;;;;;;5068203;28;20397;-65
2022/07/01 04:38:28;;;;;;;10.00;2.33;;;;;;;;;;5064207;28;20064;-65
2022/07/01 04:43:42;;;;;;;10.60;2.08;;;;;;;;;;5070713;28;20109;-65
2022/07/01 04:46:09;;;;;;;9.10;1.90;;;;;;;;;;5063810;28;20114;-65
2022/07/01 04:48:36;;;;;;;11.93;2.15;;;;;;;;;;5071481;28;20094;-65
2022/07/01 04:51:03;;;;;;;10.93;2.72;;;;;;;;;;5075328;28;20056;-65
2022/07/01 04:53:30;;;;;;;8.07;1.73;;;;;;;;;;5066817;28;20060;-65
2022/07/01 04:55:59;;;;;;;8.73;1.80;;;;;;;;;;5068091;28;20782;-65
2022/07/01 04:58:26;;;;;;;10.00;2.42;;;;;;;;;;5065771;28;20044;-65
2022/07/01 05:00:54;;;;;;;8.95;1.88;;;;;;;;;;5064055;28;20117;-65
2022/07/01 05:03:21;;;;;;;7.00;1.98;;;;;;;;;;5064230;28;20425;-65
2022/07/01 05:05:48;;;;;;;11.70;2.30;;;;;;;;;;5058827;28;20045;-65
2022/07/01 05:08:15;;;;;;;7.78;2.03;;;;;;;;;;5064591;28;20052;-65
2022/07/01 05:10:43;;;;;;;9.20;2.78;;;;;;;;;;5055865;28;20075;-65
2022/07/01 05:13:12;;;;;;;12.57;2.42;;;;;;;;;;5064414;28;20133;-65
2022/07/01 05:15:39;;;;;;;8.85;2.30;;;;;;;;;;5067076;28;20045;-65
2022/07/01 05:23:36;;;;;;;8.00;2.15;;;;;;;;;;5062778;28;20425;-65
2022/07/01 05:26:03;;;;;;;9.38;2.50;;;;;;;;;;5061547;28;20360;-65
2022/07/01 05:28:32;;;;;;;11.23;2.00;;;;;;;;;;5059867;28;20079;-66
2022/07/01 05:30:59;;;;;;;9.23;2.45;;;;;;;;;;5060815;28;20065;-66
2022/07/01 05:33:27;;;;;;;10.88;2.35;;;;;;;;;;5068704;28;20486;-66
2022/07/01 05:35:54;;;;;;;10.60;2.53;;;;;;;;;;5062818;28;20056;-66
2022/07/01 05:38:21;;;;;;;14.02;3.17;;;;;;;;;;5064689;28;20122;-66
2022/07/01 05:40:48;;;;;;;11.15;2.70;;;;;;;;;;5065132;28;20056;-66
2022/07/01 05:43:15;;;;;;;13.48;2.70;;;;;;;;;;5064785;28;20118;-66
2022/07/01 05:45:44;;;;;;;15.45;2.95;;;;;;;;;;5060920;28;20052;-65
2022/07/01 05:48:11;;;;;;;13.45;3.13;;;;;;;;;;5061430;28;20495;-65
2022/07/01 05:50:38;;;;;;;10.82;2.95;;;;;;;;;;5063225;28;20044;-65
2022/07/01 05:53:05;;;;;;;15.70;3.80;;;;;;;;;;5063954;28;20099;-65
2022/07/01 05:55:33;;;;;;;12.23;3.20;;;;;;;;;;5066574;28;20040;-65
2022/07/01 05:58:01;;;;;;;14.15;3.38;;;;;;;;;;5063846;28;20072;-65
2022/07/01 06:00:28;;;;;;;11.00;3.72;;;;;;;;;;5065958;28;20131;-65
2022/07/01 06:02:56;;;;;;;13.43;3.30;;;;;;;;;;5064342;28;20573;-65
2022/07/01 06:05:24;;;;;;;10.50;3.50;;;;;;;;;;5071836;28;20538;-65
2022/07/01 06:07:51;;;;;;;14.45;3.70;;;;;;;;;;5065623;28;20510;-65
2022/07/01 06:10:18;;;;;;;12.45;3.83;;;;;;;;;;5064382;28;20105;-65
2022/07/01 06:12:45;;;;;;;16.05;3.85;;;;;;;;;;5065597;28;20126;-65
2022/07/01 06:15:13;;;;;;;16.27;4.32;;;;;;;;;;5065212;28;20056;-65
2022/07/01 06:17:41;;;;;;;12.70;4.07;;;;;;;;;;5057663;28;20450;-65
2022/07/01 06:20:11;;;;;;;15.18;4.97;;;;;;;;;;5062635;28;20052;-65
2022/07/01 06:22:38;;;;;;;15.60;4.90;;;;;;;;;;5066365;28;20593;-65
2022/07/01 06:25:07;;;;;;;16.15;5.00;;;;;;;;;;5060175;28;20049;-65
2022/07/01 06:27:39;;;;;;;16.55;5.60;;;;;;;;;;5063616;28;20056;-65
2022/07/01 06:30:06;;;;;;;17.50;5.28;;;;;;;;;;5055550;28;20057;-65
2022/07/01 06:32:33;;;;;;;17.38;5.82;;;;;;;;;;5060450;28;20086;-65
2022/07/01 06:35:01;;;;;;;20.35;5.50;;;;;;;;;;5060108;28;20129;-65
2022/07/01 06:37:32;;;;;;;23.25;6.10;;;;;;;;;;5071086;28;20093;-65
2022/07/01 06:40:00;;;;;;;15.60;5.70;;;;;;;;;;5071748;28;20052;-65
2022/07/01 06:42:27;;;;;;;16.52;5.80;;;;;;;;;;5072964;28;20056;-65
2022/07/01 06:44:54;;;;;;;17.95;6.15;;;;;;;;;;5065050;28;20052;-65
2022/07/01 06:47:21;;;;;;;16.50;5.40;;;;;;;;;;5067193;28;20064;-65
2022/07/01 06:49:48;;;;;;;20.52;5.90;;;;;;;;;;5063579;28;20156;-65
2022/07/01 06:52:16;;;;;;;17.45;5.65;;;;;;;;;;5059457;28;20407;-65
2022/07/01 06:54:44;;;;;;;14.23;5.90;;;;;;;;;;5066792;28;20725;-65
2022/07/01 06:57:11;;;;;;;16.73;5.00;;;;;;;;;;5069083;28;20403;-65
2022/07/01 06:59:39;;;;;;;19.77;5.10;;;;;;;;;;5061713;28;20048;-65
2022/07/01 07:02:07;;;;;;;16.85;5.32;;;;;;;;;;5070851;28;20056;-65
2022/07/01 07:04:34;;;;;;;17.25;4.30;;;;;;;;;;5068854;28;20048;-65
2022/07/01 07:07:01;;;;;;;13.93;4.35;;;;;;;;;;5074697;28;20062;-65
2022/07/01 07:09:29;;;;;;;15.45;4.10;;;;;;;;;;5061773;28;20048;-65
2022/07/01 07:11:57;;;;;;;10.38;3.60;;;;;;;;;;5066122;28;20144;-65
2022/07/01 07:14:24;;;;;;;12.95;3.88;;;;;;;;;;5058782;28;20067;-66
2022/07/01 07:16:54;;;;;;;14.45;3.78;;;;;;;;;;5060559;28;20048;-66
2022/07/01 07:19:30;;;;;;;15.05;3.78;;;;;;;;;;5061024;28;20050;-66
2022/07/01 07:21:57;;;;;;;10.85;3.13;;;;;;;;;;5059309;28;20064;-66
2022/07/01 07:24:24;;;;;;;12.00;2.85;;;;;;;;;;5062850;28;20053;-66
2022/07/01 07:26:52;;;;;;;14.73;3.13;;;;;;;;;;5060269;28;20383;-66
2022/07/01 07:29:20;;;;;;;10.75;2.67;;;;;;;;;;5059723;28;20070;-66
2022/07/01 07:31:47;;;;;;;9.32;2.17;;;;;;;;;;5061333;28;20116;-66
2022/07/01 07:34:15;;;;;;;16.00;2.40;;;;;;;;;;5062758;28;20052;-66
2022/07/01 07:36:42;;;;;;;12.20;1.85;;;;;;;;;;5064332;28;20689;-66
2022/07/01 07:39:09;;;;;;;11.25;2.20;;;;;;;;;;5057582;28;20473;-66
2022/07/01 07:41:36;;;;;;;17.48;2.28;;;;;;;;;;5058717;28;20071;-66
2022/07/01 07:44:04;;;;;;;10.57;2.67;;;;;;;;;;5054914;28;20083;-66
2022/07/01 07:46:32;;;;;;;10.23;2.05;;;;;;;;;;5054444;28;20137;-66
2022/07/01 07:48:59;;;;;;;11.60;2.58;;;;;;;;;;5051646;28;20060;-65
2022/07/01 07:51:27;;;;;;;9.90;2.20;;;;;;;;;;5061170;28;20070;-66
2022/07/01 07:53:54;;;;;;;9.95;2.03;;;;;;;;;;5060183;28;20056;-66
2022/07/01 07:56:21;;;;;;;12.35;2.42;;;;;;;;;;5061838;28;20050;-66
2022/07/01 07:58:48;;;;;;;8.82;1.98;;;;;;;;;;5062504;28;20044;-66
2022/07/01 08:01:15;;;;;;;11.20;2.50;;;;;;;;;;5065697;28;20090;-66
2022/07/01 08:03:45;;;;;;;9.68;1.88;;;;;;;;;;5061252;28;20049;-66
2022/07/01 08:06:13;;;;;;;8.52;2.35;;;;;;;;;;5056334;28;20063;-66
2022/07/01 08:08:40;;;;;;;13.27;1.92;;;;;;;;;;5059197;28;20049;-66
2022/07/01 08:11:07;;;;;;;10.77;1.52;;;;;;;;;;5058761;28;20051;-66
2022/07/01 08:13:35;;;;;;;6.75;1.70;;;;;;;;;;5057906;28;20059;-66
2022/07/01 08:16:02;;;;;;;10.23;1.95;;;;;;;;;;5065402;28;20052;-66
2022/07/01 08:18:29;;;;;;;7.43;1.40;;;;;;;;;;5064988;28;20051;-66
2022/07/01 08:20:58;;;;;;;9.75;1.58;;;;;;;;;;5064430;28;20060;-66
2022/07/01 08:23:25;;;;;;;9.93;1.70;;;;;;;;;;5069382;28;20051;-66
2022/07/01 08:25:52;;;;;;;9.68;1.77;;;;;;;;;;5062143;28;20388;-66
2022/07/01 08:28:20;;;;;;;9.55;1.65;;;;;;;;;;5066656;28;20071;-66
2022/07/01 08:30:47;;;;;;;10.57;1.90;;;;;;;;;;5067725;28;20695;-66
2022/07/01 08:33:14;;;;;;;7.22;1.70;;;;;;;;;;5065000;28;20045;-67
2022/07/01 08:35:42;;;;;;;10.18;1.70;;;;;;;;;;5065271;28;20048;-66
2022/07/01 08:38:10;;;;;;;11.02;1.85;;;;;;;;;;5064731;28;20060;-66
2022/07/01 08:40:37;;;;;;;8.35;1.90;;;;;;;;;;5068122;28;20057;-66
2022/07/01 08:43:05;;;;;;;9.07;1.67;;;;;;;;;;5067500;28;20106;-66
2022/07/01 08:45:33;;;;;;;8.30;1.83;;;;;;;;;;5066012;28;20056;-66
2022/07/01 08:48:01;;;;;;;9.85;1.88;;;;;;;;;;5070374;28;20189;-66
2022/07/01 08:50:29;;;;;;;7.60;1.58;;;;;;;;;;5069634;28;20052;-66
2022/07/01 08:52:56;;;;;;;9.27;1.58;;;;;;;;;;5066970;28;20083;-67
2022/07/01 08:55:25;;;;;;;7.80;1.67;;;;;;;;;;5064748;28;20056;-66
2022/07/01 08:57:53;;;;;;;7.75;1.67;;;;;;;;;;5068354;28;20105;-66
2022/07/01 09:00:20;;;;;;;7.03;1.50;;;;;;;;;;5067200;28;20060;-66
2022/07/01 09:02:51;;;;;;;10.98;2.03;;;;;;;;;;5064842;28;20070;-66
2022/07/01 09:05:18;;;;;;;6.65;1.23;;;;;;;;;;5064433;28;20048;-66
2022/07/01 09:07:46;;;;;;;9.93;1.70;;;;;;;;;;5067130;28;20048;-66
2022/07/01 09:10:18;;;;;;;7.63;1.23;;;;;;;;;;5064973;28;20052;-66
2022/07/01 09:12:47;;;;;;;7.45;1.40;;;;;;;;;;5068645;28;20099;-67
2022/07/01 09:15:21;;;;;;;5.72;0.90;;;;;;;;;;5059692;28;20068;-66
2022/07/01 09:17:48;;;;;;;6.40;1.00;;;;;;;;;;5059179;28;20049;-67
2022/07/01 09:20:24;;;;;;;2.67;0.70;;;;;;;;;;5062592;28;20438;-66
2022/07/01 09:23:01;;;;;;;4.15;0.95;;;;;;;;;;5065646;28;20055;-67
2022/07/01 09:25:29;;;;;;;4.40;1.02;;;;;;;;;;5065270;28;20060;-66
2022/07/01 09:28:12;;;;;;;3.28;0.80;;;;;;;;;;5064542;28;20056;-66
2022/07/01 09:30:40;;;;;;;4.32;0.70;;;;;;;;;;5065510;28;20036;-67
2022/07/01 09:33:11;;;;;;;6.05;0.80;;;;;;;;;;5063773;28;20768;-66
2022/07/01 09:35:39;;;;;;;3.53;0.90;;;;;;;;;;5063131;28;20053;-66
2022/07/01 09:38:07;;;;;;;7.80;0.95;;;;;;;;;;5067060;28;20534;-67
2022/07/01 09:40:47;;;;;;;4.22;0.95;;;;;;;;;;5064312;28;20052;-67
2022/07/01 09:43:17;;;;;;;4.32;0.90;;;;;;;;;;5063231;28;21530;-67
2022/07/01 09:45:58;;;;;;;4.13;0.90;;;;;;;;;;5069105;28;20047;-66
2022/07/01 09:48:26;;;;;;;3.10;0.95;;;;;;;;;;5067245;28;20048;-67
2022/07/01 09:50:54;;;;;;;4.32;1.10;;;;;;;;;;5064721;28;20052;-67
2022/07/01 09:53:21;;;;;;;5.32;1.00;;;;;;;;;;5059138;28;20072;-66
2022/07/01 09:55:48;;;;;;;3.50;1.23;;;;;;;;;;5061543;28;20063;-66
2022/07/01 09:58:17;;;;;;;3.47;1.00;;;;;;;;;;5062440;28;20405;-66
2022/07/01 10:00:45;;;;;;;4.32;1.08;;;;;;;;;;5062057;28;20113;-67
2022/07/01 10:03:12;;;;;;;6.35;1.17;;;;;;;;;;5059157;28;20110;-66
2022/07/01 10:05:42;;;;;;;3.20;1.02;;;;;;;;;;5053243;28;20177;-66
2022/07/01 10:08:24;;;;;;;5.75;1.10;;;;;;;;;;5068969;28;20060;-66
2022/07/01 10:10:58;;;;;;;7.28;1.20;;;;;;;;;;5062254;28;20048;-66
2022/07/01 10:13:28;;;;;;;7.10;1.00;;;;;;;;;;5069369;28;20153;-66
2022/07/01 10:15:57;;;;;;;7.40;1.40;;;;;;;;;;5069042;28;20049;-66
2022/07/01 10:18:25;;;;;;;5.90;1.20;;;;;;;;;;5065976;28;20080;-66
2022/07/01 10:20:53;;;;;;;3.28;1.10;;;;;;;;;;5070227;28;20574;-66
2022/07/01 10:23:21;;;;;;;5.35;1.20;;;;;;;;;;5072721;28;20048;-67
2022/07/01 10:25:49;;;;;;;3.78;1.10;;;;;;;;;;5068106;28;20117;-67
2022/07/01 10:28:17;;;;;;;3.67;1.00;;;;;;;;;;5065074;28;20132;-67
2022/07/01 10:30:51;;;;;;;4.45;1.00;;;;;;;;;;5063748;28;20052;-67
2022/07/01 10:33:28;;;;;;;6.53;1.00;;;;;;;;;;5075201;28;20495;-66
2022/07/01 10:35:55;;;;;;;7.72;1.65;;;;;;;;;;5064979;28;20052;-66
2022/07/01 10:38:22;;;;;;;6.70;1.52;;;;;;;;;;5067794;28;20045;-67
2022/07/01 10:40:49;;;;;;;8.77;1.70;;;;;;;;;;5068004;28;20040;-66
2022/07/01 10:43:18;;;;;;;3.20;1.17;;;;;;;;;;5068069;28;20052;-67
2022/07/01 10:45:45;;;;;;;7.60;1.40;;;;;;;;;;5066488;28;20105;-67
2022/07/01 10:48:21;;;;;;;6.18;1.52;;;;;;;;;;5068787;28;20055;-67
2022/07/01 10:50:48;;;;;;;4.07;1.20;;;;;;;;;;5071083;28;20044;-67
2022/07/01 10:53:16;;;;;;;3.75;0.93;;;;;;;;;;5067004;28;20121;-66
2022/07/01 10:55:46;;;;;;;11.38;1.13;;;;;;;;;;5070677;28;20044;-66
2022/07/01 10:58:14;;;;;;;5.93;1.30;;;;;;;;;;5063824;28;20057;-66
2022/07/01 11:00:44;;;;;;;4.10;1.13;;;;;;;;;;5064872;28;20438;-67
2022/07/01 11:03:13;;;;;;;6.22;1.15;;;;;;;;;;5059083;28;20410;-67
2022/07/01 11:05:42;;;;;;;3.67;1.05;;;;;;;;;;5064354;28;20457;-67
2022/07/01 11:08:11;;;;;;;4.88;1.00;;;;;;;;;;5065765;28;20075;-67
2022/07/01 11:10:39;;;;;;;2.25;1.00;;;;;;;;;;5064854;28;20106;-67
2022/07/01 11:13:06;;;;;;;3.53;1.13;;;;;;;;;;5058885;28;20068;-67
2022/07/01 11:15:34;;;;;;;5.78;1.08;;;;;;;;;;5066102;28;20053;-67
2022/07/01 11:18:02;;;;;;;5.35;1.10;;;;;;;;;;5060657;28;20056;-66
2022/07/01 11:20:31;;;;;;;4.60;1.00;;;;;;;;;;5067419;28;20515;-66
2022/07/01 11:23:03;;;;;;;8.05;1.35;;;;;;;;;;5062729;28;20056;-66
2022/07/01 11:25:31;;;;;;;4.65;1.20;;;;;;;;;;5065393;28;20118;-66
2022/07/01 11:27:58;;;;;;;5.43;1.20;;;;;;;;;;5065176;28;20056;-66
2022/07/01 11:30:25;;;;;;;3.25;1.25;;;;;;;;;;5060659;28;20045;-66
2022/07/01 11:32:54;;;;;;;6.22;1.02;;;;;;;;;;5067772;28;20044;-66
2022/07/01 11:40:54;;;;;;;8.93;1.77;;;;;;;;;;5061355;28;20055;-66
2022/07/01 11:43:22;;;;;;;3.28;0.90;;;;;;;;;;5065042;28;20117;-66
2022/07/01 11:45:50;;;;;;;6.15;1.08;;;;;;;;;;5059659;28;20045;-66
2022/07/01 11:48:33;;;;;;;6.82;0.88;;;;;;;;;;5059937;28;20048;-66
2022/07/01 11:51:01;;;;;;;4.05;1.00;;;;;;;;;;5064318;28;20059;-66
2022/07/01 11:53:30;;;;;;;5.07;1.50;;;;;;;;;;5060644;28;20048;-66
2022/07/01 11:55:57;;;;;;;3.95;0.90;;;;;;;;;;5061188;28;20056;-66
2022/07/01 11:58:24;;;;;;;4.68;0.85;;;;;;;;;;5061701;28;20333;-66
2022/07/01 12:00:51;;;;;;;6.07;0.98;;;;;;;;;;5062343;28;20056;-66
2022/07/01 12:03:40;;;;;;;3.25;0.93;;;;;;;;;;5061424;28;20048;-66
2022/07/01 12:06:07;;;;;;;4.53;1.02;;;;;;;;;;5060723;28;20492;-66
2022/07/01 12:08:36;;;;;;;7.07;1.30;;;;;;;;;;5064177;28;20048;-66
2022/07/01 12:11:03;;;;;;;4.85;1.13;;;;;;;;;;5065368;28;20056;-66
2022/07/01 12:13:30;;;;;;;8.82;1.25;;;;;;;;;;5068551;28;20475;-66
2022/07/01 12:16:07;;;;;;;6.65;1.20;;;;;;;;;;5067929;28;20044;-67
2022/07/01 12:18:34;;;;;;;8.10;1.10;;;;;;;;;;5066263;28;20052;-66
2022/07/01 12:21:01;;;;;;;4.15;1.05;;;;;;;;;;5067636;28;20057;-66
2022/07/01 12:23:28;;;;;;;4.50;1.00;;;;;;;;;;5064970;28;20056;-66
2022/07/01 12:25:57;;;;;;;4.40;0.98;;;;;;;;;;5065462;28;20044;-66
2022/07/01 12:28:26;;;;;;;7.80;1.55;;;;;;;;;;5068227;28;20099;-66
2022/07/01 12:31:00;;;;;;;5.63;1.65;;;;;;;;;;5062941;28;20870;-66
2022/07/01 12:33:28;;;;;;;8.43;1.40;;;;;;;;;;5062832;28;20044;-66
2022/07/01 12:35:55;;;;;;;6.72;1.40;;;;;;;;;;5062389;28;20045;-66
2022/07/01 12:38:22;;;;;;;4.80;1.15;;;;;;;;;;5064358;28;20048;-66
2022/07/01 12:40:49;;;;;;;6.93;1.10;;;;;;;;;;5062435;28;20044;-66
2022/07/01 12:43:34;;;;;;;4.55;1.00;;;;;;;;;;5060940;28;20098;-66
2022/07/01 12:46:02;;;;;;;4.78;1.30;;;;;;;;;;5068963;28;20048;-66
2022/07/01 12:48:30;;;;;;;9.15;1.35;;;;;;;;;;5062923;28;20055;-67
2022/07/01 12:50:58;;;;;;;8.52;1.15;;;;;;;;;;5069176;28;20054;-68
2022/07/01 12:53:26;;;;;;;4.45;1.00;;;;;;;;;;5068523;28;20055;-68
2022/07/01 12:55:54;;;;;;;5.82;1.25;;;;;;;;;;5066761;28;20052;-68
2022/07/01 12:58:23;;;;;;;4.13;1.13;;;;;;;;;;5069754;28;20492;-68
2022/07/01 13:00:53;;;;;;;5.75;1.20;;;;;;;;;;5061386;28;20384;-68
2022/07/01 13:03:21;;;;;;;6.47;1.50;;;;;;;;;;5059937;28;20052;-68
2022/07/01 13:05:48;;;;;;;7.50;1.50;;;;;;;;;;5061678;28;20044;-68
2022/07/01 13:08:16;;;;;;;7.38;1.75;;;;;;;;;;5064477;28;20036;-68
2022/07/01 13:10:45;;;;;;;4.90;1.25;;;;;;;;;;5064326;28;20118;-67
2022/07/01 13:13:12;;;;;;;10.43;1.50;;;;;;;;;;5066775;28;20052;-68
2022/07/01 13:15:40;;;;;;;7.68;1.30;;;;;;;;;;5066345;28;20403;-68
2022/07/01 13:18:08;;;;;;;7.90;1.50;;;;;;;;;;5062834;28;20402;-67
2022/07/01 13:20:36;;;;;;;8.80;1.63;;;;;;;;;;5067179;28;20044;-68
2022/07/01 13:23:03;;;;;;;7.30;1.88;;;;;;;;;;5065870;28;20133;-68
2022/07/01 13:25:31;;;;;;;5.90;1.35;;;;;;;;;;5064345;28;20044;-68
2022/07/01 13:27:58;;;;;;;8.30;1.80;;;;;;;;;;5058204;28;20064;-68
2022/07/01 13:30:26;;;;;;;8.85;1.65;;;;;;;;;;5066513;28;20064;-67
2022/07/01 13:32:53;;;;;;;8.02;1.60;;;;;;;;;;5065775;28;20062;-67
2022/07/01 13:35:22;;;;;;;7.47;1.42;;;;;;;;;;5070914;28;20059;-68
2022/07/01 13:37:49;;;;;;;4.82;1.20;;;;;;;;;;5068416;28;20159;-68
2022/07/01 13:40:17;;;;;;;7.32;1.60;;;;;;;;;;5065822;28;20048;-68
2022/07/01 13:42:44;;;;;;;8.07;1.77;;;;;;;;;;5061996;28;20060;-68
2022/07/01 13:45:13;;;;;;;3.88;1.27;;;;;;;;;;5066966;28;20064;-68
2022/07/01 13:47:40;;;;;;;6.82;1.52;;;;;;;;;;5057954;28;20757;-68
2022/07/01 13:50:08;;;;;;;5.13;1.27;;;;;;;;;;5059665;28;20565;-67
2022/07/01 13:52:36;;;;;;;9.40;1.60;;;;;;;;;;5063462;28;20060;-68
2022/07/01 13:55:04;;;;;;;6.55;1.40;;;;;;;;;;5065501;28;20056;-68
2022/07/01 13:57:31;;;;;;;11.07;1.50;;;;;;;;;;5063836;28;20052;-69
2022/07/01 13:59:58;;;;;;;6.53;1.13;;;;;;;;;;5065846;28;20507;-68
2022/07/01 14:02:25;;;;;;;5.40;1.50;;;;;;;;;;5050323;28;20056;-68
2022/07/01 14:04:52;;;;;;;9.13;1.70;;;;;;;;;;5051547;28;20603;-68
2022/07/01 14:07:20;;;;;;;5.70;1.27;;;;;;;;;;5055606;28;20121;-68
2022/07/01 14:09:48;;;;;;;4.68;1.30;;;;;;;;;;5054094;28;20572;-68
2022/07/01 14:12:16;;;;;;;5.32;1.48;;;;;;;;;;5054607;28;20061;-68
2022/07/01 14:14:43;;;;;;;6.20;1.38;;;;;;;;;;5062288;28;20052;-68
2022/07/01 14:17:11;;;;;;;6.65;1.40;;;;;;;;;;5057088;28;20055;-69
2022/07/01 14:19:38;;;;;;;6.10;1.20;;;;;;;;;;5060046;28;20682;-68
2022/07/01 14:22:05;;;;;;;8.93;1.60;;;;;;;;;;5063869;28;20048;-68
2022/07/01 14:24:33;;;;;;;6.45;1.55;;;;;;;;;;5072227;28;20044;-68
2022/07/01 14:27:01;;;;;;;5.90;1.60;;;;;;;;;;5066419;28;20071;-69
2022/07/01 14:29:29;;;;;;;5.60;1.83;;;;;;;;;;5068754;28;20055;-68
2022/07/01 14:31:56;;;;;;;8.52;1.52;;;;;;;;;;5064762;28;20767;-68
2022/07/01 14:34:23;;;;;;;5.97;1.52;;;;;;;;;;5060635;28;21233;-69
2022/07/01 14:36:50;;;;;;;5.82;1.40;;;;;;;;;;5060955;28;21435;-68
2022/07/01 14:39:18;;;;;;;3.90;1.20;;;;;;;;;;5055184;28;20143;-69
2022/07/01 14:41:48;;;;;;;6.07;1.40;;;;;;;;;;5056067;28;20060;-71
2022/07/01 14:44:17;;;;;;;4.60;1.27;;;;;;;;;;5061212;28;20053;-71
2022/07/01 14:46:44;;;;;;;6.88;1.27;;;;;;;;;;5057625;28;20130;-70
2022/07/01 14:49:14;;;;;;;8.32;1.70;;;;;;;;;;5057234;28;20411;-71
2022/07/01 14:51:41;;;;;;;6.45;1.35;;;;;;;;;;5062117;28;20122;-71
2022/07/01 14:54:08;;;;;;;6.78;1.50;;;;;;;;;;5058462;28;20148;-72
2022/07/01 14:56:36;;;;;;;5.13;1.15;;;;;;;;;;5062129;28;20041;-72
2022/07/01 14:59:03;;;;;;;7.57;1.33;;;;;;;;;;5060559;28;20939;-71
2022/07/01 15:01:31;;;;;;;6.93;1.27;;;;;;;;;;5060458;28;20044;-71
2022/07/01 15:03:59;;;;;;;4.88;1.40;;;;;;;;;;5065198;28;20056;-71
2022/07/01 15:06:26;;;;;;;4.95;1.20;;;;;;;;;;5062037;28;20059;-70